createdAt,value
2018-06-24T00:02:04.011Z,101656.64
2018-06-24T00:04:32.249Z,101656.72
2018-06-24T00:07:00.457Z,101654.59
2018-06-24T00:09:28.738Z,101658.13
2018-06-24T00:11:56.990Z,101654.52
2018-06-24T00:14:25.299Z,101658.30
2018-06-24T00:16:53.563Z,101656.75
2018-06-24T00:19:21.781Z,101654.13
2018-06-24T00:21:50.027Z,101649.27
2018-06-24T00:24:18.257Z,101652.89
2018-06-24T00:26:46.487Z,101650.95
2018-06-24T00:29:15.242Z,101645.91
2018-06-24T00:31:43.570Z,101636.69
2018-06-24T00:34:12.284Z,101639.34
2018-06-24T00:36:40.540Z,101630.64
2018-06-24T00:39:09.865Z,101624.70
2018-06-24T00:41:38.522Z,101616.94
2018-06-24T00:44:06.824Z,101622.94
2018-06-24T00:46:35.076Z,101616.48
2018-06-24T00:49:03.312Z,101615.58
2018-06-24T00:51:31.577Z,101615.03
2018-06-24T00:53:59.861Z,101603.86
2018-06-24T00:56:28.083Z,101608.09
2018-06-24T00:58:56.353Z,101600.18
2018-06-24T01:01:24.700Z,101601.52
2018-06-24T01:03:52.931Z,101602.98
2018-06-24T01:06:21.161Z,101604.53
2018-06-24T01:08:49.328Z,101604.00
2018-06-24T01:11:17.498Z,101605.99
2018-06-24T01:13:45.649Z,101600.27
2018-06-24T01:16:13.900Z,101598.46
2018-06-24T01:18:42.074Z,101601.53
2018-06-24T01:21:10.362Z,101602.28
2018-06-24T01:23:39.059Z,101606.47
2018-06-24T01:26:07.300Z,101599.89
2018-06-24T01:28:36.113Z,101593.43
2018-06-24T01:31:04.325Z,101595.03
2018-06-24T01:33:32.540Z,101597.73
2018-06-24T01:36:00.730Z,101602.80
2018-06-24T01:38:28.978Z,101603.34
2018-06-24T01:40:57.192Z,101593.58
2018-06-24T01:43:25.515Z,101598.41
2018-06-24T01:45:53.774Z,101593.78
2018-06-24T01:48:21.961Z,101593.13
2018-06-24T01:50:50.159Z,101591.80
2018-06-24T01:53:18.367Z,101598.59
2018-06-24T01:55:46.778Z,101589.58
2018-06-24T01:58:14.957Z,101589.26
2018-06-24T02:00:43.266Z,101590.93
2018-06-24T02:03:11.482Z,101585.94
2018-06-24T02:05:39.872Z,101589.25
2018-06-24T02:08:08.040Z,101585.83
2018-06-24T02:10:36.234Z,101581.73
2018-06-24T02:13:04.435Z,101576.27
2018-06-24T02:15:32.623Z,101581.50
2018-06-24T02:18:01.097Z,101582.45
2018-06-24T02:20:29.294Z,101572.11
2018-06-24T02:22:57.455Z,101571.34
2018-06-24T02:25:25.682Z,101568.95
2018-06-24T02:27:53.869Z,101566.65
2018-06-24T02:30:22.068Z,101559.67
2018-06-24T02:32:50.412Z,101558.94
2018-06-24T02:35:18.606Z,101564.23
2018-06-24T02:37:46.821Z,101564.80
2018-06-24T02:40:15.099Z,101557.67
2018-06-24T02:42:43.334Z,101565.99
2018-06-24T02:45:12.134Z,101563.95
2018-06-24T02:47:40.378Z,101556.03
2018-06-24T02:50:08.633Z,101562.09
2018-06-24T02:52:37.602Z,101565.31
2018-06-24T02:55:05.779Z,101557.27
2018-06-24T02:57:33.985Z,101557.69
2018-06-24T03:00:02.141Z,101558.13
2018-06-24T03:02:30.281Z,101554.64
2018-06-24T03:04:58.598Z,101557.05
2018-06-24T03:07:26.856Z,101551.66
2018-06-24T03:09:55.073Z,101551.41
2018-06-24T03:12:23.438Z,101550.12
2018-06-24T03:14:51.696Z,101549.34
2018-06-24T03:17:19.880Z,101563.91
2018-06-24T03:19:48.105Z,101563.30
2018-06-24T03:22:16.317Z,101561.55
2018-06-24T03:24:44.544Z,101559.90
2018-06-24T03:27:12.706Z,101545.41
2018-06-24T03:29:40.966Z,101561.95
2018-06-24T03:32:09.261Z,101560.38
2018-06-24T03:34:37.501Z,101564.69
2018-06-24T03:37:05.737Z,101561.14
2018-06-24T03:39:33.930Z,101560.54
2018-06-24T03:42:02.161Z,101560.86
2018-06-24T03:44:30.444Z,101546.61
2018-06-24T03:46:59.015Z,101557.73
2018-06-24T03:49:27.189Z,101556.64
2018-06-24T03:51:55.442Z,101562.27
2018-06-24T03:54:23.674Z,101557.89
2018-06-24T03:56:51.865Z,101547.67
2018-06-24T03:59:20.054Z,101564.86
2018-06-24T04:01:48.273Z,101561.50
2018-06-24T04:04:16.708Z,101568.80
2018-06-24T04:06:44.886Z,101569.31
2018-06-24T04:09:13.092Z,101561.70
2018-06-24T04:11:41.330Z,101558.69
2018-06-24T04:14:09.568Z,101559.98
2018-06-24T04:16:37.825Z,101557.88
2018-06-24T04:19:06.051Z,101552.03
2018-06-24T04:21:34.233Z,101556.38
2018-06-24T04:24:02.436Z,101552.72
2018-06-24T04:26:30.629Z,101553.07
2018-06-24T04:28:58.885Z,101549.42
2018-06-24T04:31:27.112Z,101545.92
2018-06-24T04:33:55.422Z,101551.55
2018-06-24T04:36:23.643Z,101549.19
2018-06-24T04:38:51.837Z,101550.72
2018-06-24T04:41:20.191Z,101548.56
2018-06-24T04:43:48.390Z,101558.58
2018-06-24T04:46:16.564Z,101560.27
2018-06-24T04:48:45.195Z,101559.30
2018-06-24T04:51:13.373Z,101560.16
2018-06-24T04:53:41.612Z,101565.87
2018-06-24T04:56:09.855Z,101555.52
2018-06-24T04:58:38.053Z,101557.95
2018-06-24T05:01:06.231Z,101556.77
2018-06-24T05:03:34.414Z,101560.43
2018-06-24T05:06:03.001Z,101554.24
2018-06-24T05:08:31.207Z,101550.25
2018-06-24T05:10:59.391Z,101548.19
2018-06-24T05:13:27.632Z,101562.80
2018-06-24T05:15:55.833Z,101555.16
2018-06-24T05:18:24.188Z,101557.74
2018-06-24T05:20:52.453Z,101560.33
2018-06-24T05:23:20.658Z,101563.62
2018-06-24T05:25:48.862Z,101556.55
2018-06-24T05:28:17.043Z,101562.56
2018-06-24T05:30:45.317Z,101560.43
2018-06-24T05:33:13.569Z,101561.20
2018-06-24T05:35:41.745Z,101563.28
2018-06-24T05:38:09.961Z,101572.89
2018-06-24T05:40:38.140Z,101569.25
2018-06-24T05:43:06.411Z,101561.31
2018-06-24T05:45:34.613Z,101567.72
2018-06-24T05:48:03.002Z,101565.14
2018-06-24T05:50:31.226Z,101568.45
2018-06-24T05:52:59.526Z,101558.46
2018-06-24T05:55:27.755Z,101565.44
2018-06-24T05:57:56.018Z,101566.27
2018-06-24T06:00:24.354Z,101562.63
2018-06-24T06:02:52.580Z,101562.85
2018-06-24T06:05:20.860Z,101566.38
2018-06-24T06:07:49.080Z,101555.76
2018-06-24T06:10:17.356Z,101558.27
2018-06-24T06:12:45.510Z,101559.06
2018-06-24T06:15:13.706Z,101564.16
2018-06-24T06:17:41.982Z,101558.83
2018-06-24T06:20:10.626Z,101559.23
2018-06-24T06:22:39.001Z,101570.09
2018-06-24T06:25:07.639Z,101563.61
2018-06-24T06:27:35.958Z,101566.69
2018-06-24T06:30:04.936Z,101567.92
2018-06-24T06:32:33.219Z,101564.30
2018-06-24T06:35:01.617Z,101576.20
2018-06-24T06:37:29.814Z,101573.66
2018-06-24T06:39:58.061Z,101571.14
2018-06-24T06:42:26.238Z,101571.14
2018-06-24T06:44:54.477Z,101574.28
2018-06-24T06:47:22.620Z,101574.47
2018-06-24T06:49:50.987Z,101574.19
2018-06-24T06:52:19.285Z,101577.53
2018-06-24T06:54:47.498Z,101572.98
2018-06-24T06:57:15.820Z,101575.81
2018-06-24T06:59:44.604Z,101574.34
2018-06-24T07:02:12.788Z,101570.34
2018-06-24T07:04:40.967Z,101575.97
2018-06-24T07:07:09.251Z,101581.28
2018-06-24T07:09:37.483Z,101581.14
2018-06-24T07:12:05.701Z,101577.33
2018-06-24T07:14:33.923Z,101581.11
2018-06-24T07:17:02.096Z,101585.48
2018-06-24T07:19:30.490Z,101577.09
2018-06-24T07:21:58.740Z,101585.64
2018-06-24T07:24:26.962Z,101592.78
2018-06-24T07:26:56.050Z,101592.55
2018-06-24T07:29:24.304Z,101586.78
2018-06-24T07:31:52.556Z,101592.12
2018-06-24T07:34:20.869Z,101598.20
2018-06-24T07:36:49.158Z,101599.19
2018-06-24T07:39:17.373Z,101597.14
2018-06-24T07:41:45.596Z,101591.53
2018-06-24T07:44:13.802Z,101591.73
2018-06-24T07:46:42.084Z,101591.92
2018-06-24T07:49:10.290Z,101586.56
2018-06-24T07:51:38.602Z,101585.45
2018-06-24T07:54:06.832Z,101586.91
2018-06-24T07:56:35.097Z,101583.55
2018-06-24T07:59:04.253Z,101583.97
2018-06-24T08:01:32.552Z,101580.43
2018-06-24T08:04:01.459Z,101584.11
2018-06-24T08:06:29.811Z,101587.14
2018-06-24T08:08:57.995Z,101587.00
2018-06-24T08:11:26.760Z,101589.98
2018-06-24T08:13:54.941Z,101586.39
2018-06-24T08:16:23.116Z,101589.32
2018-06-24T08:18:51.349Z,101590.95
2018-06-24T08:21:19.563Z,101597.34
2018-06-24T08:23:47.771Z,101599.98
2018-06-24T08:26:16.029Z,101594.09
2018-06-24T08:28:44.266Z,101595.70
2018-06-24T08:31:12.517Z,101592.03
2018-06-24T08:33:40.776Z,101595.48
2018-06-24T08:36:08.949Z,101594.67
2018-06-24T08:38:37.175Z,101590.40
2018-06-24T08:41:05.492Z,101584.54
2018-06-24T08:43:33.661Z,101583.05
2018-06-24T08:46:01.841Z,101582.30
2018-06-24T08:48:29.999Z,101586.08
2018-06-24T08:50:58.197Z,101582.53
2018-06-24T08:53:26.368Z,101578.71
2018-06-24T08:55:54.607Z,101576.70
2018-06-24T08:58:22.872Z,101583.05
2018-06-24T09:00:51.106Z,101577.17
2018-06-24T09:03:19.344Z,101575.08
2018-06-24T09:05:48.009Z,101576.38
2018-06-24T09:08:16.232Z,101577.22
2018-06-24T09:10:44.409Z,101578.24
2018-06-24T09:13:12.816Z,101576.33
2018-06-24T09:15:41.880Z,101586.89
2018-06-24T09:18:09.907Z,101583.78
2018-06-24T09:20:38.130Z,101575.61
2018-06-24T09:23:06.505Z,101571.31
2018-06-24T09:25:34.683Z,101573.17
2018-06-24T09:28:02.884Z,101574.33
2018-06-24T09:30:31.122Z,101568.45
2018-06-24T09:32:59.344Z,101566.07
2018-06-24T09:35:27.610Z,101571.16
2018-06-24T09:37:55.833Z,101571.12
2018-06-24T09:40:24.059Z,101571.28
2018-06-24T09:42:52.320Z,101573.79
2018-06-24T09:45:20.590Z,101573.38
2018-06-24T09:47:48.865Z,101580.95
2018-06-24T09:50:17.052Z,101578.73
2018-06-24T09:52:45.346Z,101572.67
2018-06-24T09:55:13.590Z,101582.27
2018-06-24T09:57:41.787Z,101579.87
2018-06-24T10:00:15.034Z,101580.19
2018-06-24T10:02:43.306Z,101581.77
2018-06-24T10:05:11.529Z,101587.59
2018-06-24T10:07:39.687Z,101584.09
2018-06-24T10:10:07.917Z,101581.94
2018-06-24T10:12:36.152Z,101587.07
2018-06-24T10:15:04.390Z,101587.30
2018-06-24T10:17:32.599Z,101579.87
2018-06-24T10:20:00.836Z,101578.98
2018-06-24T10:22:29.071Z,101574.44
2018-06-24T10:24:57.391Z,101569.09
2018-06-24T10:27:25.554Z,101569.66
2018-06-24T10:29:53.797Z,101564.66
2018-06-24T10:32:21.994Z,101566.32
2018-06-24T10:34:50.216Z,101572.08
2018-06-24T10:37:18.401Z,101571.98
2018-06-24T10:39:46.700Z,101572.70
2018-06-24T10:42:14.977Z,101556.50
2018-06-24T10:44:43.181Z,101562.81
2018-06-24T10:47:11.477Z,101572.56
2018-06-24T10:49:39.861Z,101568.54
2018-06-24T10:52:08.065Z,101567.16
2018-06-24T10:54:36.262Z,101568.89
2018-06-24T10:57:04.555Z,101559.77
2018-06-24T10:59:32.872Z,101561.01
2018-06-24T11:02:01.176Z,101557.02
2018-06-24T11:04:29.386Z,101555.07
2018-06-24T11:06:57.637Z,101563.06
2018-06-24T11:09:25.866Z,101561.69
2018-06-24T11:11:54.125Z,101562.37
2018-06-24T11:14:22.339Z,101567.22
2018-06-24T11:16:50.538Z,101559.66
2018-06-24T11:19:19.507Z,101553.86
2018-06-24T11:21:47.727Z,101556.53
2018-06-24T11:24:16.004Z,101565.00
2018-06-24T11:26:44.207Z,101553.52
2018-06-24T11:29:12.530Z,101555.63
2018-06-24T11:31:40.737Z,101555.98
2018-06-24T11:34:09.010Z,101553.79
2018-06-24T11:36:37.348Z,101557.64
2018-06-24T11:39:08.097Z,101561.28
2018-06-24T11:41:36.352Z,101556.42
2018-06-24T11:44:04.738Z,101544.95
2018-06-24T11:46:32.985Z,101547.89
2018-06-24T11:49:01.185Z,101544.05
2018-06-24T11:51:29.402Z,101549.55
2018-06-24T11:53:57.573Z,101546.60
2018-06-24T11:56:25.795Z,101549.52
2018-06-24T11:58:54.007Z,101548.20
2018-06-24T12:01:22.881Z,101550.32
2018-06-24T12:03:51.118Z,101552.06
2018-06-24T12:06:19.355Z,101549.14
2018-06-24T12:08:47.597Z,101550.67
2018-06-24T12:11:15.853Z,101557.25
2018-06-24T12:13:44.065Z,101562.08
2018-06-24T12:16:12.263Z,101556.70
2018-06-24T12:18:40.490Z,101562.05
2018-06-24T12:21:08.699Z,101555.91
2018-06-24T12:23:36.933Z,101559.86
2018-06-24T12:26:05.204Z,101544.27
2018-06-24T12:28:33.424Z,101546.00
2018-06-24T12:31:01.721Z,101545.41
2018-06-24T12:33:29.968Z,101552.67
2018-06-24T12:35:58.212Z,101547.50
2018-06-24T12:38:26.457Z,101541.41
2018-06-24T12:40:54.689Z,101540.08
2018-06-24T12:43:23.244Z,101531.61
2018-06-24T12:45:51.418Z,101535.36
2018-06-24T12:48:19.595Z,101528.46
2018-06-24T12:50:47.818Z,101532.09
2018-06-24T12:53:16.476Z,101521.27
2018-06-24T12:55:44.780Z,101526.77
2018-06-24T12:58:13.047Z,101527.86
2018-06-24T13:00:41.759Z,101523.71
2018-06-24T13:03:09.570Z,101527.41
2018-06-24T13:05:37.810Z,101522.66
2018-06-24T13:08:06.054Z,101528.69
2018-06-24T13:10:34.280Z,101532.39
2018-06-24T13:13:02.476Z,101521.88
2018-06-24T13:15:30.651Z,101521.11
2018-06-24T13:17:58.926Z,101534.30
2018-06-24T13:20:27.183Z,101524.53
2018-06-24T13:22:55.396Z,101523.20
2018-06-24T13:25:24.263Z,101519.48
2018-06-24T13:27:53.059Z,101513.48
2018-06-24T13:30:21.283Z,101517.32
2018-06-24T13:32:49.501Z,101518.70
2018-06-24T13:35:18.027Z,101518.88
2018-06-24T13:37:46.230Z,101515.19
2018-06-24T13:40:14.495Z,101508.89
2018-06-24T13:42:42.798Z,101512.53
2018-06-24T13:45:11.024Z,101514.20
2018-06-24T13:47:39.321Z,101510.23
2018-06-24T13:50:07.710Z,101510.69
2018-06-24T13:52:35.889Z,101511.79
2018-06-24T13:55:04.162Z,101511.87
2018-06-24T13:57:32.412Z,101502.69
2018-06-24T14:00:00.642Z,101503.31
2018-06-24T14:02:28.877Z,101500.05
2018-06-24T14:04:57.800Z,101507.22
2018-06-24T14:07:26.126Z,101504.25
2018-06-24T14:09:54.384Z,101497.16
2018-06-24T14:12:22.762Z,101500.14
2018-06-24T14:14:51.132Z,101497.72
2018-06-24T14:17:19.449Z,101499.58
2018-06-24T14:19:47.650Z,101501.35
2018-06-24T14:22:15.872Z,101505.72
2018-06-24T14:24:44.050Z,101500.52
2018-06-24T14:27:12.726Z,101489.86
2018-06-24T14:29:41.561Z,101493.15
2018-06-24T14:32:09.791Z,101495.08
2018-06-24T14:34:38.037Z,101505.16
2018-06-24T14:37:06.253Z,101503.36
2018-06-24T14:39:34.477Z,101495.14
2018-06-24T14:42:02.668Z,101501.09
2018-06-24T14:44:30.990Z,101498.13
2018-06-24T14:46:59.162Z,101510.83
2018-06-24T14:49:27.441Z,101507.06
2018-06-24T14:51:55.675Z,101509.72
2018-06-24T14:54:23.914Z,101505.08
2018-06-24T14:56:52.121Z,101501.75
2018-06-24T14:59:20.343Z,101508.58
2018-06-24T15:01:48.705Z,101506.56
2018-06-24T15:04:16.932Z,101514.30
2018-06-24T15:06:45.246Z,101509.11
2018-06-24T15:09:13.622Z,101516.29
2018-06-24T15:11:41.895Z,101506.88
2018-06-24T15:14:10.093Z,101509.98
2018-06-24T15:16:38.722Z,101508.37
2018-06-24T15:19:07.593Z,101510.28
2018-06-24T15:21:35.772Z,101507.17
2018-06-24T15:24:03.970Z,101509.98
2018-06-24T15:26:32.686Z,101504.48
2018-06-24T15:29:00.941Z,101500.47
2018-06-24T15:31:29.142Z,101496.50
2018-06-24T15:33:57.390Z,101491.47
2018-06-24T15:36:25.582Z,101495.38
2018-06-24T15:38:53.775Z,101493.09
2018-06-24T15:41:21.945Z,101496.19
2018-06-24T15:43:50.107Z,101493.81
2018-06-24T15:46:18.302Z,101496.23
2018-06-24T15:48:47.414Z,101484.76
2018-06-24T15:51:17.469Z,101485.91
2018-06-24T15:53:45.770Z,101488.60
2018-06-24T15:56:14.032Z,101487.47
2018-06-24T15:58:42.235Z,101492.46
2018-06-24T16:01:10.458Z,101487.77
2018-06-24T16:03:38.688Z,101486.41
2018-06-24T16:06:07.037Z,101488.31
2018-06-24T16:08:35.342Z,101488.04
2018-06-24T16:11:03.620Z,101480.65
2018-06-24T16:13:31.875Z,101484.61
2018-06-24T16:16:00.865Z,101483.78
2018-06-24T16:18:29.213Z,101472.31
2018-06-24T16:20:57.757Z,101475.53
2018-06-24T16:23:25.827Z,101476.70
2018-06-24T16:25:54.096Z,101480.87
2018-06-24T16:28:22.318Z,101478.72
2018-06-24T16:30:50.570Z,101482.07
2018-06-24T16:33:18.828Z,101473.86
2018-06-24T16:35:47.072Z,101480.69
2018-06-24T16:38:15.391Z,101475.95
2018-06-24T16:40:43.658Z,101481.16
2018-06-24T16:43:11.998Z,101477.17
2018-06-24T16:45:40.274Z,101479.53
2018-06-24T16:48:08.653Z,101476.82
2018-06-24T16:50:36.862Z,101479.05
2018-06-24T16:53:05.156Z,101482.89
2018-06-24T16:55:33.338Z,101477.25
2018-06-24T16:58:01.630Z,101475.74
2018-06-24T17:00:29.824Z,101477.23
2018-06-24T17:02:58.061Z,101478.23
2018-06-24T17:05:26.878Z,101487.37
2018-06-24T17:07:55.129Z,101481.32
2018-06-24T17:10:23.434Z,101488.63
2018-06-24T17:12:51.617Z,101490.14
2018-06-24T17:15:19.837Z,101493.98
2018-06-24T17:17:48.047Z,101486.36
2018-06-24T17:20:16.275Z,101484.73
2018-06-24T17:22:44.517Z,101488.53
2018-06-24T17:25:12.798Z,101490.78
2018-06-24T17:27:41.101Z,101489.12
2018-06-24T17:30:09.459Z,101493.65
2018-06-24T17:32:37.740Z,101494.02
2018-06-24T17:35:06.000Z,101488.19
2018-06-24T17:37:34.254Z,101492.98
2018-06-24T17:40:03.424Z,101495.64
2018-06-24T17:42:31.758Z,101497.20
2018-06-24T17:44:59.920Z,101500.92
2018-06-24T17:47:28.109Z,101501.30
2018-06-24T17:49:56.306Z,101493.02
2018-06-24T17:52:24.525Z,101497.70
2018-06-24T17:54:52.733Z,101497.72
2018-06-24T17:57:21.025Z,101498.33
2018-06-24T17:59:49.265Z,101501.86
2018-06-24T18:02:17.579Z,101496.67
2018-06-24T18:04:45.793Z,101497.45
2018-06-24T18:07:14.087Z,101494.48
2018-06-24T18:09:42.329Z,101499.95
2018-06-24T18:12:10.598Z,101503.05
2018-06-24T18:14:39.129Z,101503.91
2018-06-24T18:17:07.050Z,101502.33
2018-06-24T18:19:35.504Z,101498.83
2018-06-24T18:22:03.737Z,101498.52
2018-06-24T18:24:31.968Z,101500.56
2018-06-24T18:27:00.214Z,101490.64
2018-06-24T18:29:28.452Z,101487.96
2018-06-24T18:31:56.688Z,101486.80
2018-06-24T18:34:24.870Z,101486.96
2018-06-24T18:36:53.060Z,101485.28
2018-06-24T18:39:21.290Z,101494.59
2018-06-24T18:41:49.504Z,101492.02
2018-06-24T18:44:17.773Z,101491.11
2018-06-24T18:46:45.999Z,101495.17
2018-06-24T18:49:14.362Z,101499.95
2018-06-24T18:51:42.616Z,101498.22
2018-06-24T18:54:10.849Z,101505.18
2018-06-24T18:56:39.110Z,101500.92
2018-06-24T18:59:07.337Z,101500.59
2018-06-24T19:01:35.889Z,101495.78
2018-06-24T19:04:04.818Z,101494.72
2018-06-24T19:06:33.045Z,101495.36
2018-06-24T19:09:01.283Z,101493.58
2018-06-24T19:11:29.544Z,101503.70
2018-06-24T19:13:57.742Z,101503.16
2018-06-24T19:16:25.954Z,101509.40
2018-06-24T19:18:54.384Z,101499.40
2018-06-24T19:21:22.467Z,101506.33
2018-06-24T19:23:51.313Z,101503.95
2018-06-24T19:26:19.496Z,101505.39
2018-06-24T19:28:47.691Z,101505.49
2018-06-24T19:31:15.892Z,101500.63
2018-06-24T19:33:44.127Z,101508.02
2018-06-24T19:36:12.353Z,101505.59
2018-06-24T19:38:40.695Z,101508.04
2018-06-24T19:41:08.934Z,101508.94
2018-06-24T19:43:37.782Z,101504.26
2018-06-24T19:46:06.105Z,101512.97
2018-06-24T19:48:34.294Z,101512.44
2018-06-24T19:51:02.524Z,101512.08
2018-06-24T19:53:30.763Z,101512.72
2018-06-24T19:55:58.932Z,101510.33
2018-06-24T19:58:27.197Z,101519.19
2018-06-24T20:00:55.407Z,101515.30
2018-06-24T20:03:24.149Z,101522.41
2018-06-24T20:05:52.329Z,101533.20
2018-06-24T20:08:21.262Z,101528.52
2018-06-24T20:10:49.464Z,101535.34
2018-06-24T20:13:17.664Z,101529.56
2018-06-24T20:15:45.926Z,101527.70
2018-06-24T20:18:14.101Z,101531.62
2018-06-24T20:20:42.927Z,101536.95
2018-06-24T20:23:11.108Z,101527.72
2018-06-24T20:25:39.330Z,101537.62
2018-06-24T20:28:07.516Z,101536.02
2018-06-24T20:30:35.720Z,101540.05
2018-06-24T20:33:03.963Z,101536.58
2018-06-24T20:35:32.372Z,101531.92
2018-06-24T20:38:00.531Z,101533.70
2018-06-24T20:40:28.810Z,101530.91
2018-06-24T20:42:57.048Z,101532.13
2018-06-24T20:45:25.280Z,101538.20
2018-06-24T20:47:53.459Z,101542.22
2018-06-24T20:50:21.621Z,101538.81
2018-06-24T20:52:49.813Z,101539.03
2018-06-24T20:55:18.034Z,101539.42
2018-06-24T20:57:46.195Z,101532.93
2018-06-24T21:00:14.376Z,101535.64
2018-06-24T21:02:42.542Z,101531.52
2018-06-24T21:05:10.810Z,101529.52
2018-06-24T21:07:39.063Z,101535.52
2018-06-24T21:10:07.395Z,101539.97
2018-06-24T21:12:35.995Z,101542.02
2018-06-24T21:15:04.180Z,101544.27
2018-06-24T21:17:32.488Z,101541.25
2018-06-24T21:20:01.538Z,101547.73
2018-06-24T21:22:29.745Z,101548.61
2018-06-24T21:24:57.945Z,101555.34
2018-06-24T21:27:26.120Z,101562.93
2018-06-24T21:29:54.318Z,101565.39
2018-06-24T21:32:22.513Z,101564.95
2018-06-24T21:34:51.268Z,101567.58
2018-06-24T21:37:19.426Z,101573.59
2018-06-24T21:39:47.595Z,101570.43
2018-06-24T21:42:15.767Z,101574.07
2018-06-24T21:44:44.011Z,101573.22
2018-06-24T21:47:12.227Z,101572.48
2018-06-24T21:49:40.623Z,101576.52
2018-06-24T21:52:08.900Z,101573.91
2018-06-24T21:54:37.077Z,101576.80
2018-06-24T21:57:05.903Z,101581.38
2018-06-24T21:59:34.108Z,101583.61
2018-06-24T22:02:02.261Z,101578.86
2018-06-24T22:04:30.542Z,101572.86
2018-06-24T22:06:58.685Z,101568.72
2018-06-24T22:09:27.156Z,101571.07
2018-06-24T22:11:55.408Z,101569.94
2018-06-24T22:14:23.644Z,101576.84
2018-06-24T22:16:52.017Z,101576.43
2018-06-24T22:19:20.161Z,101579.97
2018-06-24T22:21:48.412Z,101572.52
2018-06-24T22:24:16.608Z,101571.08
2018-06-24T22:26:45.193Z,101572.09
2018-06-24T22:29:13.393Z,101570.51
2018-06-24T22:31:41.544Z,101569.30
2018-06-24T22:34:09.740Z,101566.73
2018-06-24T22:36:37.888Z,101571.23
2018-06-24T22:39:08.623Z,101569.93
2018-06-24T22:41:36.818Z,101579.08
2018-06-24T22:44:05.003Z,101569.53
2018-06-24T22:46:33.316Z,101566.89
2018-06-24T22:49:01.484Z,101568.23
2018-06-24T22:51:29.703Z,101569.33
2018-06-24T22:53:57.866Z,101566.23
2018-06-24T22:56:26.046Z,101570.21
2018-06-24T22:59:05.648Z,101567.29
2018-06-24T23:01:33.937Z,101568.17
2018-06-24T23:04:02.097Z,101562.69
2018-06-24T23:06:30.342Z,101559.41
2018-06-24T23:08:59.078Z,101555.50
2018-06-24T23:11:27.263Z,101554.47
2018-06-24T23:13:55.425Z,101556.62
2018-06-24T23:16:23.600Z,101555.44
2018-06-24T23:18:51.821Z,101553.53
2018-06-24T23:21:19.994Z,101557.64
2018-06-24T23:23:48.879Z,101559.32
2018-06-24T23:26:17.060Z,101563.22
2018-06-24T23:28:45.252Z,101562.34
2018-06-24T23:31:13.430Z,101566.73
2018-06-24T23:33:41.651Z,101562.58
2018-06-24T23:36:09.812Z,101558.72
2018-06-24T23:38:37.975Z,101565.02
2018-06-24T23:41:06.198Z,101559.64
2018-06-24T23:43:34.348Z,101566.42
2018-06-24T23:46:02.521Z,101562.99
2018-06-24T23:48:30.698Z,101563.69
2018-06-24T23:50:58.885Z,101567.70
2018-06-24T23:53:27.105Z,101566.47
2018-06-24T23:55:55.366Z,101561.44
2018-06-24T23:58:23.632Z,101568.24
